Flight Track Log - Related Links

Times and Time Zones

All times are in EDT time to prevent confusion due to time zone crossing. See the SQC7332 flight status page for this flight to view local times or setup timezone preferences in your user account.

Time Position Orientation Groundspeed Altitude Reporting Facility
EDT Latitude Longitude Course Direction KTS MPH feet Rate Location/Type
Sat 01:01:15 AM 41.9449 -87.9360 114° Southeast  Level FlightAware Approximate
Sat 01:02:34 AM 41.9167 -87.8500 205° Southwest 220 253 5,000  Level Chicago TRACON
Sat 01:04:03 AM 41.8225 -87.9094 206° Southwest 261 300 9,100 2,416 Climbing Chicago Center
Sat 01:05:03 AM 41.7439 -87.9611 206° Southwest 278 320 11,000 2,800 Climbing Chicago Center
Sat 01:06:03 AM 41.6550 -88.0186 206° Southwest 327 376 14,700 3,550 Climbing Chicago Center
Sat 01:07:03 AM 41.5639 -88.0789 207° Southwest 349 402 18,100 3,200 Climbing Chicago Center
Sat 01:08:03 AM 41.4769 -88.1389 204° Southwest 375 432 21,100 2,900 Climbing Chicago Center
Sat 01:09:03 AM 41.3714 -88.2017 198° South 397 457 23,900 2,700 Climbing Chicago Center
Sat 01:10:03 AM 41.2569 -88.2506 199° South 417 480 26,500 2,550 Climbing Chicago Center
Sat 01:11:03 AM 41.1408 -88.3022 201° Southwest 437 503 29,000 2,200 Climbing Chicago Center
Sat 01:12:03 AM 41.0206 -88.3619 218° Southwest 452 520 30,900 2,150 Climbing Chicago Center
Sat 01:13:03 AM 40.9172 -88.4706 223° Southwest 468 539 33,300 2,600 Climbing Chicago Center
Sat 01:14:03 AM 40.8242 -88.5844 221° Southwest 468 539 36,100 2,264 Climbing Chicago Center
Sat 01:15:42 AM 40.6608 -88.7747 221° Southwest 432 497 39,300 1,472 Climbing Kansas City Center
Sat 01:16:42 AM 40.5661 -88.8836 221° Southwest 438 504 40,000 350 Climbing Kansas City Center
Sat 01:17:42 AM 40.4711 -88.9919 221° Southwest 451 519 40,000  Level Kansas City Center
Sat 01:18:42 AM 40.3778 -89.0975 221° Southwest 456 525 40,000  Level Kansas City Center
Sat 01:19:42 AM 40.2828 -89.2053 222° Southwest 461 531 40,000  Level Kansas City Center
Sat 01:20:42 AM 40.1975 -89.3042 220° Southwest 461 531 40,000  Level Kansas City Center
Sat 01:21:42 AM 40.1039 -89.4086 221° Southwest 461 531 40,000  Level Kansas City Center
Sat 01:22:42 AM 40.0106 -89.5131 220° Southwest 456 525 40,000  Level Kansas City Center
Sat 01:23:42 AM 39.9147 -89.6172 222° Southwest 456 525 40,000  Level Kansas City Center
Sat 01:24:42 AM 39.8211 -89.7261 220° Southwest 456 525 40,000  Level Kansas City Center
Sat 01:25:42 AM 39.7292 -89.8269 220° Southwest 456 525 40,000  Level Kansas City Center
Sat 01:26:42 AM 39.6353 -89.9300 222° Southwest 456 525 40,000  Level Kansas City Center
Sat 01:27:42 AM 39.5375 -90.0439 220° Southwest 437 503 40,000  Level Kansas City Center
Sat 01:28:42 AM 39.4472 -90.1408 221° Southwest 442 509 40,000  Level Kansas City Center
Sat 01:29:42 AM 39.3572 -90.2431 219° Southwest 442 509 40,000  Level Kansas City Center
Sat 01:30:42 AM 39.2606 -90.3453 221° Southwest 447 514 40,000  Level Kansas City Center
Sat 01:31:42 AM 39.1722 -90.4442 218° Southwest 441 507 40,000  Level Kansas City Center
Sat 01:32:42 AM 39.0756 -90.5431 221° Southwest 441 507 40,000  Level Kansas City Center
Sat 01:33:42 AM 38.9811 -90.6469 221° Southwest 449 517 40,000  Level Kansas City Center
Sat 01:34:42 AM 38.8903 -90.7478 219° Southwest 449 517 40,000  Level Kansas City Center
Sat 01:35:42 AM 38.7933 -90.8486 220° Southwest 446 513 40,000  Level Kansas City Center
Sat 01:36:42 AM 38.7086 -90.9408 219° Southwest 446 513 40,000  Level Kansas City Center
Sat 01:37:42 AM 38.6075 -91.0467 220° Southwest 446 513 40,000  Level Kansas City Center
Sat 01:38:42 AM 38.5144 -91.1467 219° Southwest 439 505 40,000  Level Kansas City Center
Sat 01:39:42 AM 38.4211 -91.2436 219° Southwest 445 512 40,000  Level Kansas City Center
Sat 01:40:42 AM 38.3258 -91.3431 219° Southwest 445 512 40,000  Level Kansas City Center
Sat 01:41:42 AM 38.2303 -91.4422 219° Southwest 450 518 40,000 -250 Level Kansas City Center
Sat 01:42:42 AM 38.1350 -91.5414 220° Southwest 445 512 39,500 -850 Descending Kansas City Center
Sat 01:43:42 AM 38.0456 -91.6372 219° Southwest 438 504 38,300 -750 Descending Kansas City Center
Sat 01:44:42 AM 37.9517 -91.7328 219° Southwest 438 504 38,000 -150 Descending Kansas City Center
Sat 01:45:42 AM 37.8600 -91.8258 220° Southwest 444 511 38,000  Level Kansas City Center
Sat 01:46:42 AM 37.7664 -91.9236 220° Southwest 444 511 38,000  Level Kansas City Center
Sat 01:47:42 AM 37.6725 -92.0214 219° Southwest 444 511 38,000  Level Kansas City Center
Sat 01:48:42 AM 37.5906 -92.1053 219° Southwest 444 511 38,000  Level Kansas City Center
Sat 01:49:42 AM 37.4944 -92.2025 219° Southwest 444 511 38,000  Level Kansas City Center
Sat 01:50:42 AM 37.4003 -92.2969 220° Southwest 444 511 38,000  Level Kansas City Center
Sat 01:51:42 AM 37.3061 -92.3964 219° Southwest 444 511 38,000  Level Kansas City Center
Sat 01:52:42 AM 37.2119 -92.4928 218° Southwest 444 511 38,000  Level Kansas City Center
Sat 01:54:31 AM 37.0336 -92.6672 219° Southwest 443 510 38,000  Level Memphis Center
Sat 01:55:31 AM 36.9378 -92.7656 219° Southwest 443 510 38,000  Level Memphis Center
Sat 01:56:31 AM 36.8422 -92.8611 219° Southwest 448 516 38,000  Level Memphis Center
Sat 01:57:31 AM 36.7444 -92.9592 218° Southwest 454 522 38,000  Level Memphis Center
Sat 01:58:31 AM 36.6464 -93.0542 219° Southwest 454 522 38,000  Level Memphis Center
Sat 01:59:31 AM 36.5506 -93.1492 218° Southwest 454 522 38,000  Level Memphis Center
Sat 02:00:31 AM 36.4419 -93.2539 220° Southwest 454 522 38,000  Level Memphis Center
Sat 02:01:31 AM 36.3458 -93.3536 217° Southwest 454 522 38,000  Level Memphis Center
Sat 02:02:31 AM 36.2497 -93.4425 218° Southwest 454 522 38,000  Level Memphis Center
Sat 02:03:31 AM 36.1514 -93.5392 218° Southwest 454 522 38,000  Level Memphis Center
Sat 02:04:31 AM 36.0531 -93.6331 218° Southwest 454 522 38,000  Level Memphis Center
Sat 02:05:31 AM 35.9547 -93.7264 219° Southwest 454 522 38,000  Level Memphis Center
Sat 02:06:31 AM 35.8583 -93.8225 217° Southwest 454 522 38,000  Level Memphis Center
Sat 02:07:31 AM 35.7597 -93.9156 218° Southwest 454 522 38,000  Level Memphis Center
Sat 02:08:31 AM 35.6653 -94.0061 218° Southwest 454 522 38,000  Level Memphis Center
Sat 02:09:31 AM 35.5772 -94.0914 219° Southwest 454 522 38,000  Level Memphis Center
Sat 02:10:31 AM 35.4828 -94.1842 217° Southwest 449 517 38,000  Level Memphis Center
Sat 02:11:31 AM 35.3861 -94.2739 222° Southwest 449 517 38,000  Level Memphis Center
Sat 02:13:35 AM 35.1928 -94.4869 222° Southwest 452 520 38,000  Level Fort Worth Center
Sat 02:14:35 AM 35.1011 -94.5867 222° Southwest 447 514 38,000  Level Fort Worth Center
Sat 02:15:35 AM 35.0117 -94.6833 222° Southwest 447 514 38,000  Level Fort Worth Center
Sat 02:16:35 AM 34.9197 -94.7825 223° Southwest 447 514 38,000  Level Fort Worth Center
Sat 02:17:35 AM 34.8383 -94.8736 220° Southwest 447 514 38,000  Level Fort Worth Center
Sat 02:18:35 AM 34.7483 -94.9647 222° Southwest 441 507 38,000  Level Fort Worth Center
Sat 02:19:35 AM 34.6606 -95.0606 221° Southwest 435 501 38,000  Level Fort Worth Center
Sat 02:20:35 AM 34.5744 -95.1514 221° Southwest 423 487 38,000  Level Fort Worth Center
Sat 02:21:35 AM 34.4864 -95.2444 222° Southwest 423 487 38,000  Level Fort Worth Center
Sat 02:22:35 AM 34.3983 -95.3397 220° Southwest 428 493 38,000  Level Fort Worth Center
Sat 02:23:35 AM 34.3081 -95.4322 221° Southwest 428 493 38,000 -1,050 Level Fort Worth Center
Sat 02:24:35 AM 34.2197 -95.5247 223° Southwest 428 493 35,900 -2,050 Descending Fort Worth Center
Sat 02:25:35 AM 34.1253 -95.6322 231° Southwest 428 493 33,900 -1,850 Descending Fort Worth Center
Sat 02:26:35 AM 34.0558 -95.7364 227° Southwest 412 474 32,200 -1,600 Descending Fort Worth Center
Sat 02:27:35 AM 33.9797 -95.8356 227° Southwest 398 458 30,700 -1,550 Descending Fort Worth Center
Sat 02:28:35 AM 33.9039 -95.9344 229° Southwest 398 458 29,100 -1,600 Descending Fort Worth Center
Sat 02:29:35 AM 33.8339 -96.0331 226° Southwest 398 458 27,500 -1,900 Descending Fort Worth Center
Sat 02:30:35 AM 33.7619 -96.1242 225° Southwest 388 447 25,300 -2,350 Descending Fort Worth Center
Sat 02:31:35 AM 33.6856 -96.2153 232° Southwest 388 447 22,800 -2,463 Descending Fort Worth Center
Sat 02:32:49 AM 33.6119 -96.3289 226° Southwest 360 414 19,800 -2,421 Descending FAA TRACON SMA TRACON (SMA)
Sat 02:33:29 AM 33.5647 -96.3875 227° Southwest 352 405 18,200 -2,325 Descending FAA TRACON SMA TRACON (SMA)
Sat 02:34:09 AM 33.5244 -96.4394 227° Southwest 345 397 16,700 -2,325 Descending FAA TRACON SMA TRACON (SMA)
Sat 02:34:49 AM 33.4800 -96.4958 226° Southwest 337 388 15,100 -2,400 Descending FAA TRACON SMA TRACON (SMA)
Sat 02:35:29 AM 33.4361 -96.5508 226° Southwest 329 379 13,500 -2,175 Descending FAA TRACON SMA TRACON (SMA)
Sat 02:36:09 AM 33.3975 -96.5994 227° Southwest 325 374 12,200 -2,100 Descending FAA TRACON SMA TRACON (SMA)
Sat 02:36:49 AM 33.3553 -96.6544 227° Southwest 324 373 10,700 -1,556 Descending FAA TRACON SMA TRACON (SMA)
Sat 02:37:30 AM 33.3144 -96.7061 227° Southwest 308 354 10,100 -815 Descending FAA TRACON SMA TRACON (SMA)
Sat 02:38:10 AM 33.2781 -96.7525 227° Southwest 274 315 9,600 -1,425 Descending FAA TRACON SMA TRACON (SMA)
Sat 02:38:50 AM 33.2472 -96.7922 226° Southwest 263 303 8,200 -2,278 Descending FAA TRACON SMA TRACON (SMA)
Sat 02:39:29 AM 33.2125 -96.8356 227° Southwest 262 302 6,600 -1,747 Descending FAA TRACON SMA TRACON (SMA)
Sat 02:40:09 AM 33.1817 -96.8744 227° Southwest 259 298 5,900 -900 Descending FAA TRACON SMA TRACON (SMA)
Sat 02:40:49 AM 33.1494 -96.9161 227° Southwest 245 282 5,400 -857 Descending FAA TRACON SMA TRACON (SMA)
Sat 02:41:33 AM 33.1203 -96.9531 228° Southwest 216 249 4,700 -1,125 Descending FAA TRACON SMA TRACON (SMA)
Sat 02:42:09 AM 33.0967 -96.9839 227° Southwest 202 232 3,900 -1,342 Descending FAA TRACON SMA TRACON (SMA)
Sat 02:42:49 AM 33.0717 -97.0158 226° Southwest 188 216 3,000 -675 Descending FAA TRACON SMA TRACON (SMA)
Sat 02:43:29 AM 33.0506 -97.0417 209° Southwest 154 177 3,000 -150 Level FAA TRACON SMA TRACON (SMA)
Sat 02:44:09 AM 33.0297 -97.0553 181° South 146 168 2,800 -519 Descending FAA TRACON SMA TRACON (SMA)
Sat 02:44:50 AM 33.0047 -97.0556 181° South 126 145 2,300 -667 Descending FAA TRACON SMA TRACON (SMA)
Sat 02:45:30 AM 32.9819 -97.0561 180° South 118 136 1,900 -651 Descending FAA TRACON SMA TRACON (SMA)
Sat 02:46:13 AM 32.9583 -97.0561 179° South 121 139 1,400 -600 Descending FAA TRACON SMA TRACON (SMA)
Sat 02:46:50 AM 32.9369 -97.0558 179° South 127 146 1,100 -545 Descending FAA TRACON SMA TRACON (SMA)
Sat 02:47:30 AM 32.9158 -97.0556 179° South 124 143 700 -600 Descending FAA TRACON SMA TRACON (SMA)

Login

Don't have an account? Register now (free) for customized features, flight alerts, and more!